sensor_id;sensor_type;location;lat;lon;timestamp;P1;durP1;ratioP1;P2;durP2;ratioP2
33108;SDS011;19481;51.118;6.940;2023-02-28T00:02:48;4.60;;;2.75;;
33108;SDS011;19481;51.118;6.940;2023-02-28T00:07:50;6.72;;;3.10;;
33108;SDS011;19481;51.118;6.940;2023-02-28T00:12:53;3.28;;;2.50;;
33108;SDS011;19481;51.118;6.940;2023-02-28T00:17:58;2.47;;;2.20;;
33108;SDS011;19481;51.118;6.940;2023-02-28T00:22:59;2.50;;;2.30;;
33108;SDS011;19481;51.118;6.940;2023-02-28T00:28:01;4.72;;;2.50;;
33108;SDS011;19481;51.118;6.940;2023-02-28T00:33:04;2.28;;;2.10;;
33108;SDS011;19481;51.118;6.940;2023-02-28T00:38:05;2.38;;;2.20;;
33108;SDS011;19481;51.118;6.940;2023-02-28T00:43:07;2.58;;;2.10;;
33108;SDS011;19481;51.118;6.940;2023-02-28T00:48:10;3.63;;;2.33;;
33108;SDS011;19481;51.118;6.940;2023-02-28T00:53:11;2.45;;;2.15;;
33108;SDS011;19481;51.118;6.940;2023-02-28T00:58:13;4.03;;;2.35;;
33108;SDS011;19481;51.118;6.940;2023-02-28T01:03:16;4.47;;;2.03;;
33108;SDS011;19481;51.118;6.940;2023-02-28T01:08:19;3.13;;;2.10;;
33108;SDS011;19481;51.118;6.940;2023-02-28T01:13:20;2.40;;;2.20;;
33108;SDS011;19481;51.118;6.940;2023-02-28T01:18:24;2.58;;;2.10;;
33108;SDS011;19481;51.118;6.940;2023-02-28T01:23:26;3.28;;;2.20;;
33108;SDS011;19481;51.118;6.940;2023-02-28T01:28:27;2.08;;;1.88;;
33108;SDS011;19481;51.118;6.940;2023-02-28T01:33:31;3.53;;;2.15;;
33108;SDS011;19481;51.118;6.940;2023-02-28T01:38:33;2.95;;;1.75;;
33108;SDS011;19481;51.118;6.940;2023-02-28T01:48:59;5.72;;;2.40;;
33108;SDS011;19481;51.118;6.940;2023-02-28T01:54:05;2.65;;;2.45;;
33108;SDS011;19481;51.118;6.940;2023-02-28T01:59:14;2.38;;;2.17;;
33108;SDS011;19481;51.118;6.940;2023-02-28T02:04:24;2.10;;;1.90;;
33108;SDS011;19481;51.118;6.940;2023-02-28T02:09:31;8.20;;;2.13;;
33108;SDS011;19481;51.118;6.940;2023-02-28T02:14:44;3.05;;;2.53;;
33108;SDS011;19481;51.118;6.940;2023-02-28T02:20:15;2.28;;;2.08;;
33108;SDS011;19481;51.118;6.940;2023-02-28T02:25:28;2.53;;;2.05;;
33108;SDS011;19481;51.118;6.940;2023-02-28T02:36:05;3.03;;;2.33;;
33108;SDS011;19481;51.118;6.940;2023-02-28T02:41:14;2.40;;;2.20;;
33108;SDS011;19481;51.118;6.940;2023-02-28T02:46:20;2.87;;;2.53;;
33108;SDS011;19481;51.118;6.940;2023-02-28T02:51:27;2.70;;;2.42;;
33108;SDS011;19481;51.118;6.940;2023-02-28T02:56:31;2.75;;;2.55;;
33108;SDS011;19481;51.118;6.940;2023-02-28T03:01:35;4.75;;;2.63;;
33108;SDS011;19481;51.118;6.940;2023-02-28T03:06:40;3.15;;;2.85;;
33108;SDS011;19481;51.118;6.940;2023-02-28T03:11:42;11.77;;;2.97;;
33108;SDS011;19481;51.118;6.940;2023-02-28T03:16:48;3.22;;;2.78;;
33108;SDS011;19481;51.118;6.940;2023-02-28T03:22:08;5.18;;;2.80;;
33108;SDS011;19481;51.118;6.940;2023-02-28T03:27:21;2.95;;;2.67;;
33108;SDS011;19481;51.118;6.940;2023-02-28T03:32:26;5.50;;;2.72;;
33108;SDS011;19481;51.118;6.940;2023-02-28T03:37:34;2.83;;;2.63;;
33108;SDS011;19481;51.118;6.940;2023-02-28T03:42:38;2.60;;;2.40;;
33108;SDS011;19481;51.118;6.940;2023-02-28T03:47:44;4.45;;;2.90;;
33108;SDS011;19481;51.118;6.940;2023-02-28T03:52:53;6.13;;;3.00;;
33108;SDS011;19481;51.118;6.940;2023-02-28T03:58:01;3.22;;;2.92;;
33108;SDS011;19481;51.118;6.940;2023-02-28T04:03:07;19.65;;;2.55;;
33108;SDS011;19481;51.118;6.940;2023-02-28T04:08:10;5.30;;;2.65;;
33108;SDS011;19481;51.118;6.940;2023-02-28T04:13:12;3.63;;;2.90;;
33108;SDS011;19481;51.118;6.940;2023-02-28T04:18:14;3.88;;;3.00;;
33108;SDS011;19481;51.118;6.940;2023-02-28T04:23:16;3.25;;;2.85;;
33108;SDS011;19481;51.118;6.940;2023-02-28T04:28:18;2.65;;;2.45;;
33108;SDS011;19481;51.118;6.940;2023-02-28T04:33:20;3.00;;;2.65;;
33108;SDS011;19481;51.118;6.940;2023-02-28T04:38:22;2.70;;;2.50;;
33108;SDS011;19481;51.118;6.940;2023-02-28T04:43:25;2.13;;;2.03;;
33108;SDS011;19481;51.118;6.940;2023-02-28T04:48:27;2.72;;;2.33;;
33108;SDS011;19481;51.118;6.940;2023-02-28T04:53:31;2.33;;;2.10;;
33108;SDS011;19481;51.118;6.940;2023-02-28T04:58:33;2.05;;;1.95;;
33108;SDS011;19481;51.118;6.940;2023-02-28T05:03:35;2.10;;;2.00;;
33108;SDS011;19481;51.118;6.940;2023-02-28T05:08:38;2.40;;;2.20;;
33108;SDS011;19481;51.118;6.940;2023-02-28T05:13:40;4.75;;;2.15;;
33108;SDS011;19481;51.118;6.940;2023-02-28T05:18:42;2.22;;;2.03;;
33108;SDS011;19481;51.118;6.940;2023-02-28T05:23:45;3.58;;;2.25;;
33108;SDS011;19481;51.118;6.940;2023-02-28T05:28:46;2.45;;;2.25;;
33108;SDS011;19481;51.118;6.940;2023-02-28T05:33:48;2.13;;;1.98;;
33108;SDS011;19481;51.118;6.940;2023-02-28T05:38:51;2.47;;;2.20;;
33108;SDS011;19481;51.118;6.940;2023-02-28T05:43:54;4.95;;;2.30;;
33108;SDS011;19481;51.118;6.940;2023-02-28T05:48:56;2.15;;;1.95;;
33108;SDS011;19481;51.118;6.940;2023-02-28T05:54:01;3.58;;;2.17;;
33108;SDS011;19481;51.118;6.940;2023-02-28T05:59:03;2.33;;;2.13;;
33108;SDS011;19481;51.118;6.940;2023-02-28T06:04:05;2.55;;;2.25;;
33108;SDS011;19481;51.118;6.940;2023-02-28T06:09:10;1.85;;;1.75;;
33108;SDS011;19481;51.118;6.940;2023-02-28T06:14:14;3.03;;;2.40;;
33108;SDS011;19481;51.118;6.940;2023-02-28T06:19:16;2.40;;;2.20;;
33108;SDS011;19481;51.118;6.940;2023-02-28T06:24:19;4.40;;;2.35;;
33108;SDS011;19481;51.118;6.940;2023-02-28T06:29:21;4.25;;;2.30;;
33108;SDS011;19481;51.118;6.940;2023-02-28T06:34:23;4.57;;;2.80;;
33108;SDS011;19481;51.118;6.940;2023-02-28T06:39:26;2.85;;;2.50;;
33108;SDS011;19481;51.118;6.940;2023-02-28T06:44:27;3.22;;;2.20;;
33108;SDS011;19481;51.118;6.940;2023-02-28T06:49:35;3.72;;;2.50;;
33108;SDS011;19481;51.118;6.940;2023-02-28T06:54:38;3.08;;;2.33;;
33108;SDS011;19481;51.118;6.940;2023-02-28T06:59:40;6.65;;;3.15;;
33108;SDS011;19481;51.118;6.940;2023-02-28T07:04:41;6.97;;;3.55;;
33108;SDS011;19481;51.118;6.940;2023-02-28T07:09:46;5.43;;;3.10;;
33108;SDS011;19481;51.118;6.940;2023-02-28T07:14:47;11.95;;;3.03;;
33108;SDS011;19481;51.118;6.940;2023-02-28T07:19:49;4.55;;;2.35;;
33108;SDS011;19481;51.118;6.940;2023-02-28T07:24:52;4.32;;;2.30;;
33108;SDS011;19481;51.118;6.940;2023-02-28T07:29:53;2.45;;;2.20;;
33108;SDS011;19481;51.118;6.940;2023-02-28T07:34:55;2.50;;;2.30;;
33108;SDS011;19481;51.118;6.940;2023-02-28T07:39:58;3.42;;;2.20;;
33108;SDS011;19481;51.118;6.940;2023-02-28T07:45:01;3.25;;;2.50;;
33108;SDS011;19481;51.118;6.940;2023-02-28T07:50:03;2.50;;;2.22;;
33108;SDS011;19481;51.118;6.940;2023-02-28T07:55:07;2.67;;;2.20;;
33108;SDS011;19481;51.118;6.940;2023-02-28T08:00:10;2.38;;;2.17;;
33108;SDS011;19481;51.118;6.940;2023-02-28T08:05:13;2.38;;;2.00;;
33108;SDS011;19481;51.118;6.940;2023-02-28T08:10:16;7.63;;;2.03;;
33108;SDS011;19481;51.118;6.940;2023-02-28T08:15:18;2.75;;;1.88;;
33108;SDS011;19481;51.118;6.940;2023-02-28T08:20:19;2.85;;;1.50;;
33108;SDS011;19481;51.118;6.940;2023-02-28T08:25:23;1.60;;;1.50;;
33108;SDS011;19481;51.118;6.940;2023-02-28T08:30:24;1.77;;;1.67;;
33108;SDS011;19481;51.118;6.940;2023-02-28T08:35:26;1.50;;;1.23;;
33108;SDS011;19481;51.118;6.940;2023-02-28T08:40:31;1.35;;;1.30;;
33108;SDS011;19481;51.118;6.940;2023-02-28T08:45:33;1.30;;;1.20;;
33108;SDS011;19481;51.118;6.940;2023-02-28T08:50:35;1.35;;;1.25;;
33108;SDS011;19481;51.118;6.940;2023-02-28T08:55:38;1.92;;;1.52;;
33108;SDS011;19481;51.118;6.940;2023-02-28T09:00:39;1.48;;;1.38;;
33108;SDS011;19481;51.118;6.940;2023-02-28T09:05:41;3.28;;;1.38;;
33108;SDS011;19481;51.118;6.940;2023-02-28T09:10:44;2.40;;;1.42;;
33108;SDS011;19481;51.118;6.940;2023-02-28T09:15:45;3.00;;;1.30;;
33108;SDS011;19481;51.118;6.940;2023-02-28T09:20:47;1.40;;;1.30;;
33108;SDS011;19481;51.118;6.940;2023-02-28T09:25:51;1.58;;;1.48;;
33108;SDS011;19481;51.118;6.940;2023-02-28T09:30:54;3.03;;;1.25;;
33108;SDS011;19481;51.118;6.940;2023-02-28T09:35:57;1.40;;;1.20;;
33108;SDS011;19481;51.118;6.940;2023-02-28T09:41:03;4.57;;;1.13;;
33108;SDS011;19481;51.118;6.940;2023-02-28T09:46:16;1.50;;;1.40;;
33108;SDS011;19481;51.118;6.940;2023-02-28T09:51:33;3.55;;;1.13;;
33108;SDS011;19481;51.118;6.940;2023-02-28T09:56:43;1.77;;;1.50;;
33108;SDS011;19481;51.118;6.940;2023-02-28T10:01:50;1.42;;;1.13;;
33108;SDS011;19481;51.118;6.940;2023-02-28T10:06:59;1.52;;;1.20;;
33108;SDS011;19481;51.118;6.940;2023-02-28T10:12:08;1.77;;;1.20;;
33108;SDS011;19481;51.118;6.940;2023-02-28T10:17:13;1.38;;;1.23;;
33108;SDS011;19481;51.118;6.940;2023-02-28T10:22:20;1.30;;;0.85;;
33108;SDS011;19481;51.118;6.940;2023-02-28T10:27:27;1.63;;;1.50;;
33108;SDS011;19481;51.118;6.940;2023-02-28T10:32:32;5.75;;;1.48;;
33108;SDS011;19481;51.118;6.940;2023-02-28T10:37:37;2.13;;;1.30;;
33108;SDS011;19481;51.118;6.940;2023-02-28T10:42:40;1.67;;;1.48;;
33108;SDS011;19481;51.118;6.940;2023-02-28T10:47:49;1.13;;;1.00;;
33108;SDS011;19481;51.118;6.940;2023-02-28T10:52:53;2.38;;;1.20;;
33108;SDS011;19481;51.118;6.940;2023-02-28T10:57:57;1.60;;;1.50;;
33108;SDS011;19481;51.118;6.940;2023-02-28T11:02:58;1.55;;;1.23;;
33108;SDS011;19481;51.118;6.940;2023-02-28T11:08:03;1.70;;;1.60;;
33108;SDS011;19481;51.118;6.940;2023-02-28T11:13:12;2.13;;;1.38;;
33108;SDS011;19481;51.118;6.940;2023-02-28T11:18:20;1.83;;;1.30;;
33108;SDS011;19481;51.118;6.940;2023-02-28T11:23:26;2.75;;;1.65;;
33108;SDS011;19481;51.118;6.940;2023-02-28T11:28:32;3.90;;;1.30;;
33108;SDS011;19481;51.118;6.940;2023-02-28T11:33:40;1.98;;;1.42;;
33108;SDS011;19481;51.118;6.940;2023-02-28T11:38:44;2.08;;;1.58;;
33108;SDS011;19481;51.118;6.940;2023-02-28T11:43:53;1.63;;;1.52;;
33108;SDS011;19481;51.118;6.940;2023-02-28T11:49:10;1.90;;;1.77;;
33108;SDS011;19481;51.118;6.940;2023-02-28T12:00:03;1.83;;;1.67;;
33108;SDS011;19481;51.118;6.940;2023-02-28T12:05:15;3.33;;;1.33;;
33108;SDS011;19481;51.118;6.940;2023-02-28T12:10:25;1.58;;;1.48;;
33108;SDS011;19481;51.118;6.940;2023-02-28T12:15:41;1.70;;;1.60;;
33108;SDS011;19481;51.118;6.940;2023-02-28T12:21:04;1.70;;;1.60;;
33108;SDS011;19481;51.118;6.940;2023-02-28T12:26:13;4.10;;;1.70;;
33108;SDS011;19481;51.118;6.940;2023-02-28T12:31:23;1.45;;;1.35;;
33108;SDS011;19481;51.118;6.940;2023-02-28T12:36:28;1.67;;;1.58;;
33108;SDS011;19481;51.118;6.940;2023-02-28T12:41:33;2.05;;;1.67;;
33108;SDS011;19481;51.118;6.940;2023-02-28T12:46:42;2.72;;;1.70;;
33108;SDS011;19481;51.118;6.940;2023-02-28T12:51:48;1.77;;;1.60;;
33108;SDS011;19481;51.118;6.940;2023-02-28T12:56:53;2.08;;;1.88;;
33108;SDS011;19481;51.118;6.940;2023-02-28T13:02:06;2.88;;;1.80;;
33108;SDS011;19481;51.118;6.940;2023-02-28T13:13:04;2.65;;;1.50;;
33108;SDS011;19481;51.118;6.940;2023-02-28T13:18:20;1.83;;;1.70;;
33108;SDS011;19481;51.118;6.940;2023-02-28T13:29:02;2.08;;;1.77;;
33108;SDS011;19481;51.118;6.940;2023-02-28T13:34:24;1.90;;;1.58;;
33108;SDS011;19481;51.118;6.940;2023-02-28T13:39:45;1.70;;;1.60;;
33108;SDS011;19481;51.118;6.940;2023-02-28T13:50:30;2.38;;;1.70;;
33108;SDS011;19481;51.118;6.940;2023-02-28T13:55:34;1.80;;;1.60;;
33108;SDS011;19481;51.118;6.940;2023-02-28T14:00:47;3.42;;;1.77;;
33108;SDS011;19481;51.118;6.940;2023-02-28T14:06:14;2.08;;;1.85;;
33108;SDS011;19481;51.118;6.940;2023-02-28T14:11:24;2.30;;;1.92;;
33108;SDS011;19481;51.118;6.940;2023-02-28T14:16:34;1.83;;;1.52;;
33108;SDS011;19481;51.118;6.940;2023-02-28T14:21:46;2.90;;;1.98;;
33108;SDS011;19481;51.118;6.940;2023-02-28T14:27:14;1.92;;;1.58;;
33108;SDS011;19481;51.118;6.940;2023-02-28T14:32:27;2.28;;;1.95;;
33108;SDS011;19481;51.118;6.940;2023-02-28T14:37:36;1.90;;;1.73;;
33108;SDS011;19481;51.118;6.940;2023-02-28T14:42:46;2.20;;;1.80;;
33108;SDS011;19481;51.118;6.940;2023-02-28T14:47:48;2.28;;;1.85;;
33108;SDS011;19481;51.118;6.940;2023-02-28T14:52:53;2.92;;;2.17;;
33108;SDS011;19481;51.118;6.940;2023-02-28T14:57:56;3.90;;;1.67;;
33108;SDS011;19481;51.118;6.940;2023-02-28T15:02:59;1.63;;;1.50;;
33108;SDS011;19481;51.118;6.940;2023-02-28T15:08:19;3.13;;;1.98;;
33108;SDS011;19481;51.118;6.940;2023-02-28T15:13:21;3.03;;;1.77;;
33108;SDS011;19481;51.118;6.940;2023-02-28T15:18:25;1.95;;;1.85;;
33108;SDS011;19481;51.118;6.940;2023-02-28T15:23:33;3.50;;;1.92;;
33108;SDS011;19481;51.118;6.940;2023-02-28T15:28:37;6.28;;;2.20;;
33108;SDS011;19481;51.118;6.940;2023-02-28T15:33:39;1.92;;;1.77;;
33108;SDS011;19481;51.118;6.940;2023-02-28T15:38:55;2.63;;;1.92;;
33108;SDS011;19481;51.118;6.940;2023-02-28T15:44:17;1.92;;;1.73;;
33108;SDS011;19481;51.118;6.940;2023-02-28T15:49:27;2.13;;;1.92;;
33108;SDS011;19481;51.118;6.940;2023-02-28T15:54:32;2.15;;;1.90;;
33108;SDS011;19481;51.118;6.940;2023-02-28T15:59:36;2.80;;;1.90;;
33108;SDS011;19481;51.118;6.940;2023-02-28T16:10:00;2.08;;;1.80;;
33108;SDS011;19481;51.118;6.940;2023-02-28T16:15:03;2.25;;;2.05;;
33108;SDS011;19481;51.118;6.940;2023-02-28T16:20:12;2.83;;;2.20;;
33108;SDS011;19481;51.118;6.940;2023-02-28T16:25:17;2.75;;;2.30;;
33108;SDS011;19481;51.118;6.940;2023-02-28T16:30:21;2.80;;;1.92;;
33108;SDS011;19481;51.118;6.940;2023-02-28T16:35:25;2.90;;;1.90;;
33108;SDS011;19481;51.118;6.940;2023-02-28T16:40:28;3.63;;;1.98;;
33108;SDS011;19481;51.118;6.940;2023-02-28T16:50:36;2.60;;;2.40;;
33108;SDS011;19481;51.118;6.940;2023-02-28T16:55:40;2.05;;;1.90;;
33108;SDS011;19481;51.118;6.940;2023-02-28T17:00:41;4.10;;;2.30;;
33108;SDS011;19481;51.118;6.940;2023-02-28T17:05:43;2.83;;;2.10;;
33108;SDS011;19481;51.118;6.940;2023-02-28T17:10:47;3.00;;;2.30;;
33108;SDS011;19481;51.118;6.940;2023-02-28T17:15:48;2.60;;;2.40;;
33108;SDS011;19481;51.118;6.940;2023-02-28T17:20:50;2.75;;;2.55;;
33108;SDS011;19481;51.118;6.940;2023-02-28T17:25:53;5.35;;;2.42;;
33108;SDS011;19481;51.118;6.940;2023-02-28T17:30:55;2.75;;;2.00;;
33108;SDS011;19481;51.118;6.940;2023-02-28T17:35:56;2.47;;;2.20;;
33108;SDS011;19481;51.118;6.940;2023-02-28T17:40:59;5.25;;;3.03;;
33108;SDS011;19481;51.118;6.940;2023-02-28T17:46:01;3.55;;;2.58;;
33108;SDS011;19481;51.118;6.940;2023-02-28T17:51:05;4.82;;;3.22;;
33108;SDS011;19481;51.118;6.940;2023-02-28T17:56:10;3.80;;;2.72;;
33108;SDS011;19481;51.118;6.940;2023-02-28T18:01:13;2.72;;;2.53;;
33108;SDS011;19481;51.118;6.940;2023-02-28T18:06:15;7.45;;;3.05;;
33108;SDS011;19481;51.118;6.940;2023-02-28T18:11:20;4.43;;;2.97;;
33108;SDS011;19481;51.118;6.940;2023-02-28T18:16:23;3.72;;;3.15;;
33108;SDS011;19481;51.118;6.940;2023-02-28T18:21:24;7.22;;;2.95;;
33108;SDS011;19481;51.118;6.940;2023-02-28T18:26:27;3.65;;;2.90;;
33108;SDS011;19481;51.118;6.940;2023-02-28T18:31:29;4.05;;;2.83;;
33108;SDS011;19481;51.118;6.940;2023-02-28T18:36:32;2.97;;;2.67;;
33108;SDS011;19481;51.118;6.940;2023-02-28T18:41:35;4.72;;;3.20;;
33108;SDS011;19481;51.118;6.940;2023-02-28T18:46:36;3.33;;;2.97;;
33108;SDS011;19481;51.118;6.940;2023-02-28T18:51:38;4.68;;;3.08;;
33108;SDS011;19481;51.118;6.940;2023-02-28T18:56:45;3.13;;;2.70;;
33108;SDS011;19481;51.118;6.940;2023-02-28T19:01:46;4.65;;;3.20;;
33108;SDS011;19481;51.118;6.940;2023-02-28T19:06:48;4.05;;;3.22;;
33108;SDS011;19481;51.118;6.940;2023-02-28T19:11:51;9.13;;;4.53;;
33108;SDS011;19481;51.118;6.940;2023-02-28T19:16:53;5.93;;;2.95;;
33108;SDS011;19481;51.118;6.940;2023-02-28T19:21:54;4.38;;;3.22;;
33108;SDS011;19481;51.118;6.940;2023-02-28T19:26:58;5.40;;;3.88;;
33108;SDS011;19481;51.118;6.940;2023-02-28T19:31:59;5.65;;;3.80;;
33108;SDS011;19481;51.118;6.940;2023-02-28T19:37:03;4.20;;;3.75;;
33108;SDS011;19481;51.118;6.940;2023-02-28T19:42:06;4.38;;;3.78;;
33108;SDS011;19481;51.118;6.940;2023-02-28T19:47:07;5.53;;;3.92;;
33108;SDS011;19481;51.118;6.940;2023-02-28T19:52:09;7.15;;;4.47;;
33108;SDS011;19481;51.118;6.940;2023-02-28T19:57:12;5.97;;;4.47;;
33108;SDS011;19481;51.118;6.940;2023-02-28T20:02:14;7.55;;;4.80;;
33108;SDS011;19481;51.118;6.940;2023-02-28T20:07:18;8.75;;;5.43;;
33108;SDS011;19481;51.118;6.940;2023-02-28T20:12:21;10.23;;;6.30;;
33108;SDS011;19481;51.118;6.940;2023-02-28T20:17:23;11.23;;;6.07;;
33108;SDS011;19481;51.118;6.940;2023-02-28T20:22:25;10.63;;;6.18;;
33108;SDS011;19481;51.118;6.940;2023-02-28T20:27:28;32.33;;;15.18;;
33108;SDS011;19481;51.118;6.940;2023-02-28T20:32:31;13.98;;;7.15;;
33108;SDS011;19481;51.118;6.940;2023-02-28T20:37:33;12.60;;;5.80;;
33108;SDS011;19481;51.118;6.940;2023-02-28T20:42:36;14.00;;;8.57;;
33108;SDS011;19481;51.118;6.940;2023-02-28T20:47:37;15.27;;;8.43;;
33108;SDS011;19481;51.118;6.940;2023-02-28T20:52:40;23.08;;;11.63;;
33108;SDS011;19481;51.118;6.940;2023-02-28T20:57:44;11.80;;;7.47;;
33108;SDS011;19481;51.118;6.940;2023-02-28T21:02:46;10.82;;;5.60;;
33108;SDS011;19481;51.118;6.940;2023-02-28T21:07:47;7.88;;;5.97;;
33108;SDS011;19481;51.118;6.940;2023-02-28T21:12:51;12.52;;;6.05;;
33108;SDS011;19481;51.118;6.940;2023-02-28T21:17:56;10.83;;;5.47;;
33108;SDS011;19481;51.118;6.940;2023-02-28T21:22:58;9.80;;;5.75;;
33108;SDS011;19481;51.118;6.940;2023-02-28T21:28:01;8.63;;;5.57;;
33108;SDS011;19481;51.118;6.940;2023-02-28T21:33:02;8.32;;;5.40;;
33108;SDS011;19481;51.118;6.940;2023-02-28T21:38:04;11.15;;;5.78;;
33108;SDS011;19481;51.118;6.940;2023-02-28T21:43:07;10.23;;;5.25;;
33108;SDS011;19481;51.118;6.940;2023-02-28T21:48:09;9.55;;;6.20;;
33108;SDS011;19481;51.118;6.940;2023-02-28T21:53:10;7.45;;;5.68;;
33108;SDS011;19481;51.118;6.940;2023-02-28T21:58:13;7.32;;;5.30;;
33108;SDS011;19481;51.118;6.940;2023-02-28T22:03:15;7.50;;;5.18;;
33108;SDS011;19481;51.118;6.940;2023-02-28T22:08:16;9.02;;;6.05;;
33108;SDS011;19481;51.118;6.940;2023-02-28T22:13:19;9.50;;;5.30;;
33108;SDS011;19481;51.118;6.940;2023-02-28T22:18:21;8.70;;;5.80;;
33108;SDS011;19481;51.118;6.940;2023-02-28T22:23:22;12.90;;;6.85;;
33108;SDS011;19481;51.118;6.940;2023-02-28T22:28:25;7.78;;;5.70;;
33108;SDS011;19481;51.118;6.940;2023-02-28T22:33:29;14.20;;;7.32;;
33108;SDS011;19481;51.118;6.940;2023-02-28T22:38:31;19.83;;;12.98;;
33108;SDS011;19481;51.118;6.940;2023-02-28T22:43:36;11.55;;;6.93;;
33108;SDS011;19481;51.118;6.940;2023-02-28T22:48:38;5.88;;;5.13;;
33108;SDS011;19481;51.118;6.940;2023-02-28T22:53:41;13.05;;;5.40;;
33108;SDS011;19481;51.118;6.940;2023-02-28T22:58:48;7.88;;;5.53;;
33108;SDS011;19481;51.118;6.940;2023-02-28T23:03:50;7.68;;;5.68;;
33108;SDS011;19481;51.118;6.940;2023-02-28T23:08:53;7.55;;;5.07;;
33108;SDS011;19481;51.118;6.940;2023-02-28T23:13:58;12.65;;;5.47;;
33108;SDS011;19481;51.118;6.940;2023-02-28T23:19:00;11.10;;;5.40;;
33108;SDS011;19481;51.118;6.940;2023-02-28T23:24:04;9.20;;;5.30;;
33108;SDS011;19481;51.118;6.940;2023-02-28T23:29:10;6.88;;;5.15;;
33108;SDS011;19481;51.118;6.940;2023-02-28T23:34:13;7.80;;;5.50;;
33108;SDS011;19481;51.118;6.940;2023-02-28T23:39:16;7.82;;;4.93;;
33108;SDS011;19481;51.118;6.940;2023-02-28T23:44:20;7.25;;;5.28;;
33108;SDS011;19481;51.118;6.940;2023-02-28T23:49:21;7.00;;;5.00;;
33108;SDS011;19481;51.118;6.940;2023-02-28T23:54:23;5.72;;;4.60;;
33108;SDS011;19481;51.118;6.940;2023-02-28T23:59:26;7.68;;;5.35;;
